Terminal Aerodrome Forecast
Issued by NWS

Home | Current Version | Previous Version | Graphics & Text | Print | Product List | Glossary On
Versions: 1 2 3 4 5 6 7 8 9 10 11 12
190
FTUS43 KGRB 212325
TAFCWA
TAF
KCWA 212325Z 2200/2224 35007KT P6SM BKN100
     FM220300 34003KT P6SM SCT100
     FM221200 22005KT P6SM SKC
     FM221900 21007KT P6SM SCT100=

USA.gov is the U.S. government's official web portal to all federal, state and local government web resources and services.